sensor_id;sensor_type;location;lat;lon;timestamp;pressure;altitude;pressure_sealevel;temperature;humidity
4392;BME280;2210;51.938;8.488;2022-07-10T00:01:48;101453.47;;;16.29;74.90
4392;BME280;2210;51.938;8.488;2022-07-10T00:05:48;101456.19;;;16.24;74.73
4392;BME280;2210;51.938;8.488;2022-07-10T00:09:49;101455.25;;;16.18;74.32
4392;BME280;2210;51.938;8.488;2022-07-10T00:13:50;101448.59;;;16.19;74.82
4392;BME280;2210;51.938;8.488;2022-07-10T00:17:50;101451.88;;;16.16;75.34
4392;BME280;2210;51.938;8.488;2022-07-10T00:21:50;101462.75;;;16.17;74.16
4392;BME280;2210;51.938;8.488;2022-07-10T00:25:50;101448.94;;;16.23;74.18
4392;BME280;2210;51.938;8.488;2022-07-10T00:29:51;101455.41;;;16.11;74.98
4392;BME280;2210;51.938;8.488;2022-07-10T00:33:52;101449.94;;;16.16;75.14
4392;BME280;2210;51.938;8.488;2022-07-10T00:37:52;101446.91;;;16.01;76.08
4392;BME280;2210;51.938;8.488;2022-07-10T00:41:52;101443.53;;;15.99;77.19
4392;BME280;2210;51.938;8.488;2022-07-10T00:45:52;101438.28;;;15.85;77.18
4392;BME280;2210;51.938;8.488;2022-07-10T00:49:53;101451.59;;;15.83;77.21
4392;BME280;2210;51.938;8.488;2022-07-10T00:53:53;101449.78;;;16.06;77.12
4392;BME280;2210;51.938;8.488;2022-07-10T00:57:54;101453.66;;;15.76;77.62
4392;BME280;2210;51.938;8.488;2022-07-10T01:01:55;101459.78;;;15.61;78.67
4392;BME280;2210;51.938;8.488;2022-07-10T01:05:56;101456.41;;;15.88;77.12
4392;BME280;2210;51.938;8.488;2022-07-10T01:09:56;101443.88;;;16.02;76.54
4392;BME280;2210;51.938;8.488;2022-07-10T01:13:57;101425.06;;;15.93;76.95
4392;BME280;2210;51.938;8.488;2022-07-10T01:17:57;101431.66;;;15.75;78.53
4392;BME280;2210;51.938;8.488;2022-07-10T01:21:58;101429.63;;;15.70;79.51
4392;BME280;2210;51.938;8.488;2022-07-10T01:25:58;101422.19;;;15.88;79.01
4392;BME280;2210;51.938;8.488;2022-07-10T01:29:59;101430.31;;;15.77;79.42
4392;BME280;2210;51.938;8.488;2022-07-10T01:34:01;101419.16;;;15.60;80.46
4392;BME280;2210;51.938;8.488;2022-07-10T01:38:02;101419.81;;;15.50;81.15
4392;BME280;2210;51.938;8.488;2022-07-10T01:42:02;101425.84;;;15.47;81.51
4392;BME280;2210;51.938;8.488;2022-07-10T01:46:03;101418.09;;;15.78;80.55
4392;BME280;2210;51.938;8.488;2022-07-10T01:50:04;101419.31;;;15.54;81.87
4392;BME280;2210;51.938;8.488;2022-07-10T01:54:05;101422.66;;;15.39;82.57
4392;BME280;2210;51.938;8.488;2022-07-10T01:58:05;101407.06;;;15.09;84.77
4392;BME280;2210;51.938;8.488;2022-07-10T02:02:06;101405.31;;;15.48;83.03
4392;BME280;2210;51.938;8.488;2022-07-10T02:06:06;101403.47;;;15.54;81.99
4392;BME280;2210;51.938;8.488;2022-07-10T02:10:07;101403.22;;;15.56;81.93
4392;BME280;2210;51.938;8.488;2022-07-10T02:14:07;101394.59;;;15.11;85.28
4392;BME280;2210;51.938;8.488;2022-07-10T02:18:08;101398.38;;;15.34;84.09
4392;BME280;2210;51.938;8.488;2022-07-10T02:22:08;101390.75;;;15.41;83.05
4392;BME280;2210;51.938;8.488;2022-07-10T02:26:08;101387.13;;;15.00;85.02
4392;BME280;2210;51.938;8.488;2022-07-10T02:30:09;101376.81;;;15.12;85.10
4392;BME280;2210;51.938;8.488;2022-07-10T02:34:10;101375.16;;;15.11;85.57
4392;BME280;2210;51.938;8.488;2022-07-10T02:38:11;101377.72;;;15.30;84.98
4392;BME280;2210;51.938;8.488;2022-07-10T02:42:11;101382.78;;;15.04;85.33
4392;BME280;2210;51.938;8.488;2022-07-10T02:46:11;101372.38;;;15.11;85.27
4392;BME280;2210;51.938;8.488;2022-07-10T02:50:12;101370.34;;;15.07;85.22
4392;BME280;2210;51.938;8.488;2022-07-10T02:54:12;101363.84;;;15.30;84.41
4392;BME280;2210;51.938;8.488;2022-07-10T02:58:12;101367.13;;;15.27;84.75
4392;BME280;2210;51.938;8.488;2022-07-10T03:02:15;101361.47;;;15.22;84.79
4392;BME280;2210;51.938;8.488;2022-07-10T03:06:15;101358.47;;;15.40;83.17
4392;BME280;2210;51.938;8.488;2022-07-10T03:10:15;101363.38;;;15.33;83.77
4392;BME280;2210;51.938;8.488;2022-07-10T03:14:16;101353.88;;;15.17;84.31
4392;BME280;2210;51.938;8.488;2022-07-10T03:18:16;101361.56;;;14.98;86.33
4392;BME280;2210;51.938;8.488;2022-07-10T03:22:17;101361.00;;;14.84;87.65
4392;BME280;2210;51.938;8.488;2022-07-10T03:26:17;101363.25;;;14.99;86.73
4392;BME280;2210;51.938;8.488;2022-07-10T03:30:17;101362.22;;;15.17;85.92
4392;BME280;2210;51.938;8.488;2022-07-10T03:34:19;101363.56;;;15.14;85.43
4392;BME280;2210;51.938;8.488;2022-07-10T03:38:20;101368.94;;;14.92;87.25
4392;BME280;2210;51.938;8.488;2022-07-10T03:42:20;101367.53;;;14.78;88.50
4392;BME280;2210;51.938;8.488;2022-07-10T03:46:20;101368.28;;;14.38;91.42
4392;BME280;2210;51.938;8.488;2022-07-10T03:50:21;101381.41;;;14.66;90.04
4392;BME280;2210;51.938;8.488;2022-07-10T03:54:21;101377.97;;;14.99;87.64
4392;BME280;2210;51.938;8.488;2022-07-10T03:58:22;101382.91;;;14.97;87.68
4392;BME280;2210;51.938;8.488;2022-07-10T04:02:22;101372.03;;;15.08;86.56
4392;BME280;2210;51.938;8.488;2022-07-10T04:06:23;101369.34;;;14.84;88.41
4392;BME280;2210;51.938;8.488;2022-07-10T04:10:24;101377.53;;;14.55;90.67
4392;BME280;2210;51.938;8.488;2022-07-10T04:14:24;101376.94;;;14.77;89.84
4392;BME280;2210;51.938;8.488;2022-07-10T04:18:25;101385.00;;;14.78;89.44
4392;BME280;2210;51.938;8.488;2022-07-10T04:22:26;101382.84;;;14.57;90.54
4392;BME280;2210;51.938;8.488;2022-07-10T04:26:26;101374.41;;;14.75;89.90
4392;BME280;2210;51.938;8.488;2022-07-10T04:30:27;101376.47;;;14.80;88.66
4392;BME280;2210;51.938;8.488;2022-07-10T04:34:27;101381.28;;;14.61;89.93
4392;BME280;2210;51.938;8.488;2022-07-10T04:38:27;101368.25;;;14.49;92.10
4392;BME280;2210;51.938;8.488;2022-07-10T04:42:27;101370.91;;;14.56;91.03
4392;BME280;2210;51.938;8.488;2022-07-10T04:46:28;101368.88;;;14.63;91.40
4392;BME280;2210;51.938;8.488;2022-07-10T04:50:28;101371.38;;;14.77;90.37
4392;BME280;2210;51.938;8.488;2022-07-10T04:54:28;101380.56;;;14.77;90.84
4392;BME280;2210;51.938;8.488;2022-07-10T04:58:28;101381.88;;;14.51;92.43
4392;BME280;2210;51.938;8.488;2022-07-10T05:02:29;101384.31;;;14.47;93.62
4392;BME280;2210;51.938;8.488;2022-07-10T05:06:29;101383.84;;;14.50;94.19
4392;BME280;2210;51.938;8.488;2022-07-10T05:10:30;101391.06;;;14.75;92.19
4392;BME280;2210;51.938;8.488;2022-07-10T05:14:30;101397.50;;;14.64;94.23
4392;BME280;2210;51.938;8.488;2022-07-10T05:18:30;101397.13;;;14.72;93.50
4392;BME280;2210;51.938;8.488;2022-07-10T05:22:31;101386.25;;;14.47;96.52
4392;BME280;2210;51.938;8.488;2022-07-10T05:26:31;101389.00;;;14.47;99.72
4392;BME280;2210;51.938;8.488;2022-07-10T05:30:32;101383.47;;;14.59;100.00
4392;BME280;2210;51.938;8.488;2022-07-10T05:34:32;101385.06;;;14.66;100.00
4392;BME280;2210;51.938;8.488;2022-07-10T05:38:33;101379.97;;;14.52;99.95
4392;BME280;2210;51.938;8.488;2022-07-10T05:42:33;101392.66;;;14.47;98.43
4392;BME280;2210;51.938;8.488;2022-07-10T05:46:34;101390.56;;;14.78;97.31
4392;BME280;2210;51.938;8.488;2022-07-10T05:50:34;101384.75;;;14.92;99.00
4392;BME280;2210;51.938;8.488;2022-07-10T05:54:34;101385.59;;;14.92;95.72
4392;BME280;2210;51.938;8.488;2022-07-10T05:58:35;101382.97;;;14.86;94.72
4392;BME280;2210;51.938;8.488;2022-07-10T06:02:35;101383.78;;;14.98;93.46
4392;BME280;2210;51.938;8.488;2022-07-10T06:06:35;101394.91;;;14.74;94.71
4392;BME280;2210;51.938;8.488;2022-07-10T06:10:35;101394.63;;;14.99;93.91
4392;BME280;2210;51.938;8.488;2022-07-10T06:14:36;101399.88;;;14.72;94.39
4392;BME280;2210;51.938;8.488;2022-07-10T06:18:36;101396.03;;;14.73;94.42
4392;BME280;2210;51.938;8.488;2022-07-10T06:22:36;101398.16;;;14.95;93.24
4392;BME280;2210;51.938;8.488;2022-07-10T06:26:36;101391.09;;;15.04;95.09
4392;BME280;2210;51.938;8.488;2022-07-10T06:30:37;101389.13;;;15.16;92.74
4392;BME280;2210;51.938;8.488;2022-07-10T06:34:37;101391.03;;;14.99;92.40
4392;BME280;2210;51.938;8.488;2022-07-10T06:38:38;101392.22;;;15.03;93.29
4392;BME280;2210;51.938;8.488;2022-07-10T06:42:38;101388.91;;;15.18;93.55
4392;BME280;2210;51.938;8.488;2022-07-10T06:46:38;101396.50;;;15.23;91.38
4392;BME280;2210;51.938;8.488;2022-07-10T06:50:39;101397.91;;;15.37;90.64
4392;BME280;2210;51.938;8.488;2022-07-10T06:54:39;101393.13;;;15.21;90.61
4392;BME280;2210;51.938;8.488;2022-07-10T06:58:39;101391.31;;;15.43;89.85
4392;BME280;2210;51.938;8.488;2022-07-10T07:02:40;101397.97;;;15.42;89.01
4392;BME280;2210;51.938;8.488;2022-07-10T07:06:40;101384.88;;;15.26;90.49
4392;BME280;2210;51.938;8.488;2022-07-10T07:10:40;101387.31;;;15.51;89.68
4392;BME280;2210;51.938;8.488;2022-07-10T07:14:40;101382.22;;;15.77;86.81
4392;BME280;2210;51.938;8.488;2022-07-10T07:18:41;101381.28;;;15.71;85.86
4392;BME280;2210;51.938;8.488;2022-07-10T07:22:47;101389.84;;;15.52;85.79
4392;BME280;2210;51.938;8.488;2022-07-10T07:27:06;101387.00;;;15.64;84.69
4392;BME280;2210;51.938;8.488;2022-07-10T07:31:06;101385.19;;;15.41;86.29
4392;BME280;2210;51.938;8.488;2022-07-10T07:35:08;101387.47;;;15.44;86.78
4392;BME280;2210;51.938;8.488;2022-07-10T07:39:08;101388.59;;;15.60;87.09
4392;BME280;2210;51.938;8.488;2022-07-10T07:43:09;101402.25;;;15.62;84.90
4392;BME280;2210;51.938;8.488;2022-07-10T07:47:09;101397.16;;;15.88;84.63
4392;BME280;2210;51.938;8.488;2022-07-10T07:51:09;101395.81;;;15.90;83.67
4392;BME280;2210;51.938;8.488;2022-07-10T07:55:10;101388.59;;;16.06;83.46
4392;BME280;2210;51.938;8.488;2022-07-10T07:59:12;101382.22;;;15.77;83.94
4392;BME280;2210;51.938;8.488;2022-07-10T08:03:12;101387.06;;;15.98;82.71
4392;BME280;2210;51.938;8.488;2022-07-10T08:07:13;101387.22;;;16.09;80.99
4392;BME280;2210;51.938;8.488;2022-07-10T08:11:14;101383.34;;;16.10;81.25
4392;BME280;2210;51.938;8.488;2022-07-10T08:15:16;101386.19;;;16.15;80.89
4392;BME280;2210;51.938;8.488;2022-07-10T08:19:17;101384.81;;;16.51;79.46
4392;BME280;2210;51.938;8.488;2022-07-10T08:23:17;101381.00;;;16.58;78.17
4392;BME280;2210;51.938;8.488;2022-07-10T08:27:20;101374.13;;;16.43;76.68
4392;BME280;2210;51.938;8.488;2022-07-10T08:31:21;101371.88;;;16.84;77.48
4392;BME280;2210;51.938;8.488;2022-07-10T08:35:21;101363.16;;;17.20;75.31
4392;BME280;2210;51.938;8.488;2022-07-10T08:39:21;101357.03;;;16.96;73.18
4392;BME280;2210;51.938;8.488;2022-07-10T08:43:22;101364.66;;;16.83;72.20
4392;BME280;2210;51.938;8.488;2022-07-10T08:47:22;101367.84;;;16.75;73.09
4392;BME280;2210;51.938;8.488;2022-07-10T08:51:29;101362.50;;;16.68;71.75
4392;BME280;2210;51.938;8.488;2022-07-10T08:55:30;101362.78;;;16.89;70.35
4392;BME280;2210;51.938;8.488;2022-07-10T08:59:31;101358.97;;;17.23;69.40
4392;BME280;2210;51.938;8.488;2022-07-10T09:03:32;101353.88;;;17.14;68.45
4392;BME280;2210;51.938;8.488;2022-07-10T09:07:36;101357.06;;;17.01;68.13
4392;BME280;2210;51.938;8.488;2022-07-10T09:11:38;101356.16;;;16.95;68.21
4392;BME280;2210;51.938;8.488;2022-07-10T09:15:48;101362.59;;;16.96;68.76
4392;BME280;2210;51.938;8.488;2022-07-10T09:19:48;101364.13;;;16.86;66.22
4392;BME280;2210;51.938;8.488;2022-07-10T09:23:49;101353.38;;;17.17;66.55
4392;BME280;2210;51.938;8.488;2022-07-10T09:27:53;101348.28;;;17.36;66.70
4392;BME280;2210;51.938;8.488;2022-07-10T09:31:59;101345.38;;;17.53;65.50
4392;BME280;2210;51.938;8.488;2022-07-10T09:36:10;101348.81;;;17.61;66.04
4392;BME280;2210;51.938;8.488;2022-07-10T09:40:11;101343.31;;;17.44;65.90
4392;BME280;2210;51.938;8.488;2022-07-10T09:44:11;101342.00;;;17.51;65.86
4392;BME280;2210;51.938;8.488;2022-07-10T09:48:14;101342.03;;;17.24;66.78
4392;BME280;2210;51.938;8.488;2022-07-10T09:52:23;101348.50;;;17.30;67.56
4392;BME280;2210;51.938;8.488;2022-07-10T09:56:24;101352.00;;;17.20;66.97
4392;BME280;2210;51.938;8.488;2022-07-10T10:00:30;101357.41;;;17.32;68.39
4392;BME280;2210;51.938;8.488;2022-07-10T10:04:33;101354.63;;;17.32;68.09
4392;BME280;2210;51.938;8.488;2022-07-10T10:08:46;101351.53;;;17.28;69.60
4392;BME280;2210;51.938;8.488;2022-07-10T10:12:52;101351.00;;;17.04;71.19
4392;BME280;2210;51.938;8.488;2022-07-10T10:16:56;101340.63;;;16.99;72.59
4392;BME280;2210;51.938;8.488;2022-07-10T10:20:56;101351.28;;;17.30;72.69
4392;BME280;2210;51.938;8.488;2022-07-10T10:24:57;101351.47;;;17.50;71.89
4392;BME280;2210;51.938;8.488;2022-07-10T10:28:59;101339.00;;;17.58;72.20
4392;BME280;2210;51.938;8.488;2022-07-10T10:33:00;101347.63;;;17.29;73.05
4392;BME280;2210;51.938;8.488;2022-07-10T10:37:00;101359.03;;;17.28;74.75
4392;BME280;2210;51.938;8.488;2022-07-10T10:41:26;101344.53;;;16.98;76.17
4392;BME280;2210;51.938;8.488;2022-07-10T10:45:34;101352.81;;;16.93;78.21
4392;BME280;2210;51.938;8.488;2022-07-10T10:49:50;101354.06;;;17.08;78.76
4392;BME280;2210;51.938;8.488;2022-07-10T10:54:04;101359.34;;;17.04;79.45
4392;BME280;2210;51.938;8.488;2022-07-10T10:58:14;101352.69;;;17.05;79.61
4392;BME280;2210;51.938;8.488;2022-07-10T11:06:52;101353.38;;;17.45;78.66
4392;BME280;2210;51.938;8.488;2022-07-10T11:10:53;101353.59;;;17.38;79.05
4392;BME280;2210;51.938;8.488;2022-07-10T11:14:55;101353.78;;;17.31;80.58
4392;BME280;2210;51.938;8.488;2022-07-10T11:18:55;101349.59;;;17.29;80.22
4392;BME280;2210;51.938;8.488;2022-07-10T11:31:35;101365.59;;;16.33;100.00
4392;BME280;2210;51.938;8.488;2022-07-10T11:35:45;101362.63;;;16.40;100.00
4392;BME280;2210;51.938;8.488;2022-07-10T11:39:46;101364.50;;;16.51;100.00
4392;BME280;2210;51.938;8.488;2022-07-10T11:43:50;101365.53;;;16.67;97.95
4392;BME280;2210;51.938;8.488;2022-07-10T11:47:51;101363.81;;;16.44;97.83
4392;BME280;2210;51.938;8.488;2022-07-10T11:51:51;101369.63;;;16.59;99.03
4392;BME280;2210;51.938;8.488;2022-07-10T11:55:52;101364.25;;;16.75;97.48
4392;BME280;2210;51.938;8.488;2022-07-10T11:59:53;101355.28;;;16.50;98.23
4392;BME280;2210;51.938;8.488;2022-07-10T12:03:58;101360.47;;;16.86;98.35
4392;BME280;2210;51.938;8.488;2022-07-10T12:07:58;101363.22;;;16.81;96.18
4392;BME280;2210;51.938;8.488;2022-07-10T12:12:05;101360.38;;;16.98;94.83
4392;BME280;2210;51.938;8.488;2022-07-10T12:16:06;101369.44;;;16.88;95.49
4392;BME280;2210;51.938;8.488;2022-07-10T12:20:07;101363.66;;;17.17;94.81
4392;BME280;2210;51.938;8.488;2022-07-10T12:24:12;101364.94;;;17.31;96.36
4392;BME280;2210;51.938;8.488;2022-07-10T12:28:12;101365.28;;;17.35;93.56
4392;BME280;2210;51.938;8.488;2022-07-10T12:32:21;101365.88;;;17.15;96.96
4392;BME280;2210;51.938;8.488;2022-07-10T12:36:22;101368.97;;;17.18;100.00
4392;BME280;2210;51.938;8.488;2022-07-10T12:40:30;101380.97;;;16.97;100.00
4392;BME280;2210;51.938;8.488;2022-07-10T12:44:41;101371.56;;;16.81;100.00
4392;BME280;2210;51.938;8.488;2022-07-10T12:48:43;101375.63;;;16.73;100.00
4392;BME280;2210;51.938;8.488;2022-07-10T12:52:45;101373.69;;;16.51;100.00
4392;BME280;2210;51.938;8.488;2022-07-10T12:56:45;101383.53;;;16.81;100.00
4392;BME280;2210;51.938;8.488;2022-07-10T13:00:46;101368.81;;;17.03;100.00
4392;BME280;2210;51.938;8.488;2022-07-10T13:04:53;101365.06;;;16.53;100.00
4392;BME280;2210;51.938;8.488;2022-07-10T13:08:54;101356.84;;;16.85;100.00
4392;BME280;2210;51.938;8.488;2022-07-10T13:12:54;101362.25;;;17.14;100.00
4392;BME280;2210;51.938;8.488;2022-07-10T13:16:54;101355.16;;;17.29;100.00
4392;BME280;2210;51.938;8.488;2022-07-10T13:20:56;101355.50;;;17.38;100.00
4392;BME280;2210;51.938;8.488;2022-07-10T13:24:58;101365.69;;;17.22;100.00
4392;BME280;2210;51.938;8.488;2022-07-10T13:28:58;101354.22;;;17.18;100.00
4392;BME280;2210;51.938;8.488;2022-07-10T13:32:59;101340.88;;;17.47;100.00
4392;BME280;2210;51.938;8.488;2022-07-10T13:37:00;101339.91;;;17.36;100.00
4392;BME280;2210;51.938;8.488;2022-07-10T13:41:01;101345.31;;;17.48;100.00
4392;BME280;2210;51.938;8.488;2022-07-10T13:45:01;101342.75;;;17.69;100.00
4392;BME280;2210;51.938;8.488;2022-07-10T13:49:01;101337.34;;;17.30;100.00
4392;BME280;2210;51.938;8.488;2022-07-10T13:53:01;101340.88;;;17.47;100.00
4392;BME280;2210;51.938;8.488;2022-07-10T13:57:03;101330.31;;;17.55;100.00
4392;BME280;2210;51.938;8.488;2022-07-10T14:01:04;101333.56;;;17.74;100.00
4392;BME280;2210;51.938;8.488;2022-07-10T14:05:04;101324.84;;;17.65;100.00
4392;BME280;2210;51.938;8.488;2022-07-10T14:09:05;101339.34;;;17.67;100.00
4392;BME280;2210;51.938;8.488;2022-07-10T14:13:05;101338.28;;;17.13;100.00
4392;BME280;2210;51.938;8.488;2022-07-10T14:17:05;101333.22;;;17.10;100.00
4392;BME280;2210;51.938;8.488;2022-07-10T14:21:06;101332.81;;;17.24;100.00
4392;BME280;2210;51.938;8.488;2022-07-10T14:25:08;101336.47;;;17.02;100.00
4392;BME280;2210;51.938;8.488;2022-07-10T14:29:11;101338.44;;;17.29;100.00
4392;BME280;2210;51.938;8.488;2022-07-10T14:33:11;101340.38;;;17.56;100.00
4392;BME280;2210;51.938;8.488;2022-07-10T14:37:12;101334.94;;;17.71;100.00
4392;BME280;2210;51.938;8.488;2022-07-10T14:41:12;101328.75;;;17.64;100.00
4392;BME280;2210;51.938;8.488;2022-07-10T14:45:12;101332.84;;;17.56;100.00
4392;BME280;2210;51.938;8.488;2022-07-10T14:49:12;101330.59;;;17.85;100.00
4392;BME280;2210;51.938;8.488;2022-07-10T14:53:13;101327.84;;;17.91;100.00
4392;BME280;2210;51.938;8.488;2022-07-10T14:57:13;101323.88;;;17.81;100.00
4392;BME280;2210;51.938;8.488;2022-07-10T15:01:14;101323.22;;;17.74;100.00
4392;BME280;2210;51.938;8.488;2022-07-10T15:05:15;101317.19;;;17.87;100.00
4392;BME280;2210;51.938;8.488;2022-07-10T15:09:15;101303.19;;;18.10;100.00
4392;BME280;2210;51.938;8.488;2022-07-10T15:13:16;101295.91;;;18.09;100.00
4392;BME280;2210;51.938;8.488;2022-07-10T15:17:16;101299.94;;;17.91;100.00
4392;BME280;2210;51.938;8.488;2022-07-10T15:21:16;101297.06;;;17.80;100.00
4392;BME280;2210;51.938;8.488;2022-07-10T15:25:16;101286.03;;;17.96;100.00
4392;BME280;2210;51.938;8.488;2022-07-10T15:29:17;101297.63;;;17.77;95.66
4392;BME280;2210;51.938;8.488;2022-07-10T15:33:17;101295.13;;;17.81;97.06
4392;BME280;2210;51.938;8.488;2022-07-10T15:37:18;101291.44;;;17.75;98.39
4392;BME280;2210;51.938;8.488;2022-07-10T15:41:18;101294.31;;;17.85;100.00
4392;BME280;2210;51.938;8.488;2022-07-10T15:45:18;101291.59;;;17.91;98.04
4392;BME280;2210;51.938;8.488;2022-07-10T15:49:18;101286.34;;;17.99;97.87
4392;BME280;2210;51.938;8.488;2022-07-10T15:53:19;101286.38;;;17.67;99.96
4392;BME280;2210;51.938;8.488;2022-07-10T15:57:19;101285.81;;;17.70;100.00
4392;BME280;2210;51.938;8.488;2022-07-10T16:01:19;101283.94;;;17.43;100.00
4392;BME280;2210;51.938;8.488;2022-07-10T16:05:19;101279.53;;;17.47;100.00
4392;BME280;2210;51.938;8.488;2022-07-10T16:09:20;101283.94;;;17.43;100.00
4392;BME280;2210;51.938;8.488;2022-07-10T16:13:20;101286.75;;;17.48;100.00
4392;BME280;2210;51.938;8.488;2022-07-10T16:17:21;101292.88;;;17.45;100.00
4392;BME280;2210;51.938;8.488;2022-07-10T16:21:21;101298.88;;;17.05;100.00
4392;BME280;2210;51.938;8.488;2022-07-10T16:25:22;101298.47;;;16.91;100.00
4392;BME280;2210;51.938;8.488;2022-07-10T16:29:41;101295.59;;;16.85;100.00
4392;BME280;2210;51.938;8.488;2022-07-10T16:33:41;101293.38;;;16.88;100.00
4392;BME280;2210;51.938;8.488;2022-07-10T16:37:42;101282.19;;;16.82;100.00
4392;BME280;2210;51.938;8.488;2022-07-10T16:41:42;101290.53;;;16.82;100.00
4392;BME280;2210;51.938;8.488;2022-07-10T16:45:44;101285.88;;;16.88;100.00
4392;BME280;2210;51.938;8.488;2022-07-10T16:49:45;101300.41;;;16.90;100.00
4392;BME280;2210;51.938;8.488;2022-07-10T16:53:45;101296.41;;;16.86;100.00
4392;BME280;2210;51.938;8.488;2022-07-10T16:57:45;101297.53;;;16.85;100.00
4392;BME280;2210;51.938;8.488;2022-07-10T17:01:45;101296.84;;;16.73;100.00
4392;BME280;2210;51.938;8.488;2022-07-10T17:05:46;101297.88;;;16.44;100.00
4392;BME280;2210;51.938;8.488;2022-07-10T17:09:46;101293.06;;;16.40;100.00
4392;BME280;2210;51.938;8.488;2022-07-10T17:13:46;101287.22;;;16.41;100.00
4392;BME280;2210;51.938;8.488;2022-07-10T17:17:47;101289.69;;;16.60;100.00
4392;BME280;2210;51.938;8.488;2022-07-10T17:21:48;101287.97;;;16.54;100.00
4392;BME280;2210;51.938;8.488;2022-07-10T17:25:49;101287.75;;;16.60;100.00
4392;BME280;2210;51.938;8.488;2022-07-10T17:29:49;101288.63;;;16.61;100.00
4392;BME280;2210;51.938;8.488;2022-07-10T17:33:50;101287.22;;;16.41;100.00
4392;BME280;2210;51.938;8.488;2022-07-10T17:37:50;101288.41;;;16.45;100.00
4392;BME280;2210;51.938;8.488;2022-07-10T17:41:50;101291.78;;;16.47;100.00
4392;BME280;2210;51.938;8.488;2022-07-10T17:45:51;101295.72;;;16.51;100.00
4392;BME280;2210;51.938;8.488;2022-07-10T17:49:54;101288.94;;;16.64;100.00
4392;BME280;2210;51.938;8.488;2022-07-10T17:53:54;101300.75;;;16.55;100.00
4392;BME280;2210;51.938;8.488;2022-07-10T17:57:55;101304.53;;;16.43;100.00
4392;BME280;2210;51.938;8.488;2022-07-10T18:01:55;101299.28;;;16.47;100.00
4392;BME280;2210;51.938;8.488;2022-07-10T18:05:55;101301.09;;;16.36;100.00
4392;BME280;2210;51.938;8.488;2022-07-10T18:09:56;101297.06;;;16.27;100.00
4392;BME280;2210;51.938;8.488;2022-07-10T18:13:56;101296.56;;;16.30;100.00
4392;BME280;2210;51.938;8.488;2022-07-10T18:17:56;101296.69;;;16.40;100.00
4392;BME280;2210;51.938;8.488;2022-07-10T18:21:57;101295.16;;;16.49;100.00
4392;BME280;2210;51.938;8.488;2022-07-10T18:25:57;101297.94;;;16.49;100.00
4392;BME280;2210;51.938;8.488;2022-07-10T18:29:58;101292.84;;;16.24;100.00
4392;BME280;2210;51.938;8.488;2022-07-10T18:33:58;101292.06;;;16.29;100.00
4392;BME280;2210;51.938;8.488;2022-07-10T18:38:18;101293.69;;;16.25;100.00
4392;BME280;2210;51.938;8.488;2022-07-10T18:42:19;101291.78;;;16.08;100.00
4392;BME280;2210;51.938;8.488;2022-07-10T18:46:19;101289.78;;;16.04;100.00
4392;BME280;2210;51.938;8.488;2022-07-10T18:50:19;101285.22;;;15.97;100.00
4392;BME280;2210;51.938;8.488;2022-07-10T18:54:19;101287.28;;;16.02;100.00
4392;BME280;2210;51.938;8.488;2022-07-10T18:58:20;101286.03;;;16.15;100.00
4392;BME280;2210;51.938;8.488;2022-07-10T19:02:20;101296.34;;;16.14;100.00
4392;BME280;2210;51.938;8.488;2022-07-10T19:06:21;101293.66;;;16.02;100.00
4392;BME280;2210;51.938;8.488;2022-07-10T19:10:21;101287.44;;;15.95;100.00
4392;BME280;2210;51.938;8.488;2022-07-10T19:14:22;101292.16;;;15.95;100.00
4392;BME280;2210;51.938;8.488;2022-07-10T19:18:22;101288.63;;;15.99;100.00
4392;BME280;2210;51.938;8.488;2022-07-10T19:22:22;101288.19;;;16.08;100.00
4392;BME280;2210;51.938;8.488;2022-07-10T19:26:22;101287.75;;;16.16;100.00
4392;BME280;2210;51.938;8.488;2022-07-10T19:30:24;101289.09;;;16.13;100.00
4392;BME280;2210;51.938;8.488;2022-07-10T19:34:24;101292.06;;;16.07;100.00
4392;BME280;2210;51.938;8.488;2022-07-10T19:38:25;101293.22;;;16.11;100.00
4392;BME280;2210;51.938;8.488;2022-07-10T19:42:25;101295.31;;;16.21;100.00
4392;BME280;2210;51.938;8.488;2022-07-10T19:46:26;101300.88;;;16.21;100.00
4392;BME280;2210;51.938;8.488;2022-07-10T19:50:26;101302.91;;;16.08;100.00
4392;BME280;2210;51.938;8.488;2022-07-10T19:54:26;101310.31;;;16.19;100.00
4392;BME280;2210;51.938;8.488;2022-07-10T19:58:27;101309.81;;;16.23;100.00
4392;BME280;2210;51.938;8.488;2022-07-10T20:02:27;101302.28;;;16.23;100.00
4392;BME280;2210;51.938;8.488;2022-07-10T20:06:27;101315.88;;;16.19;100.00
4392;BME280;2210;51.938;8.488;2022-07-10T20:10:27;101312.44;;;16.12;100.00
4392;BME280;2210;51.938;8.488;2022-07-10T20:14:28;101306.13;;;16.17;100.00
4392;BME280;2210;51.938;8.488;2022-07-10T20:18:29;101314.69;;;16.15;100.00
4392;BME280;2210;51.938;8.488;2022-07-10T20:22:30;101306.94;;;16.17;100.00
4392;BME280;2210;51.938;8.488;2022-07-10T20:26:30;101304.34;;;16.11;100.00
4392;BME280;2210;51.938;8.488;2022-07-10T20:30:31;101303.53;;;16.10;100.00
4392;BME280;2210;51.938;8.488;2022-07-10T20:34:31;101309.66;;;16.12;100.00
4392;BME280;2210;51.938;8.488;2022-07-10T20:38:31;101310.81;;;16.16;100.00
4392;BME280;2210;51.938;8.488;2022-07-10T20:42:31;101308.66;;;16.18;100.00
4392;BME280;2210;51.938;8.488;2022-07-10T20:46:32;101302.47;;;16.16;100.00
4392;BME280;2210;51.938;8.488;2022-07-10T20:50:32;101303.75;;;16.09;100.00
4392;BME280;2210;51.938;8.488;2022-07-10T20:54:32;101301.75;;;16.04;100.00
4392;BME280;2210;51.938;8.488;2022-07-10T20:58:32;101300.06;;;16.03;100.00
4392;BME280;2210;51.938;8.488;2022-07-10T21:02:33;101304.88;;;16.08;100.00
4392;BME280;2210;51.938;8.488;2022-07-10T21:06:33;101302.09;;;16.08;100.00
4392;BME280;2210;51.938;8.488;2022-07-10T21:10:33;101298.41;;;16.02;100.00
4392;BME280;2210;51.938;8.488;2022-07-10T21:14:43;101301.75;;;16.04;100.00
4392;BME280;2210;51.938;8.488;2022-07-10T21:18:44;101302.84;;;16.03;100.00
4392;BME280;2210;51.938;8.488;2022-07-10T21:22:45;101297.28;;;16.03;100.00
4392;BME280;2210;51.938;8.488;2022-07-10T21:26:45;101303.88;;;15.97;100.00
4392;BME280;2210;51.938;8.488;2022-07-10T21:30:45;101306.97;;;16.00;100.00
4392;BME280;2210;51.938;8.488;2022-07-10T21:34:46;101302.09;;;16.08;100.00
4392;BME280;2210;51.938;8.488;2022-07-10T21:38:46;101302.25;;;16.01;100.00
4392;BME280;2210;51.938;8.488;2022-07-10T21:42:46;101295.69;;;15.90;100.00